Puerto Banus, Marbella

>

This is an optional block (switch it off / on) in the settings - file ($SITE['banners'] = false;)

You can display ads, any other important text or photo’s using text / html or PHP code.

You can place one or more at the top and or bottom and it can all be different for content / size .



Meteosat more information blitzortung!


Radar lluvias  rain snow radar


Visita nuestra red de sitios de meteo:

Documentation for the template used

MeteoibericaRed estaciones Meteorologicas

MeteoclimaticRed estaciones Meteorologicas



Sin Advertencias climatologicas .En este momento tenemos Nivel Verde.    No hay Alarmas

Pagina Historial Weather Underground texto

Diario Resumen Diciembre 27, 2017 Unidades:  impérial    Métrico   Tanto
« Anterior Dia
Siguiente Dia »
Diario Semana Mensual Anual Personalizada
  Maxima: Minima: Media:
Temperatura: 66 °F 57.6 °F 61.5 °F
Punto de rocío: 57.4 °F 47.1 °F 51.6 °F
Humedad: 91 % 56 % 71 %
Velocidad del Viento: 35.7 mph 2.3 mph 18.7 mph
Ráfagas de viento: 35.7 mph - -
Viento:- - West
Pression baro: 30.1 in 29.9 in -
Précipitaciones: 0 in    
Historical Graphs
 
 
Datos de tabla para Diciembre 27, 2017
Tiempo Temperatura Punto de rocío Pression baro Viento Velocidad del Viento Ráfagas de viento Humedad Las precipitaciones Rate ( Hora )
00:02 59.5 °F 49.6 °F 30.1 in West 11.5 mph 11.5 mph 70 % 0 in
00:07 59.2 °F 49.5 °F 30.1 in West 6.9 mph 6.9 mph 70 % 0 in
00:12 59.2 °F 48.9 °F 30.1 in West 10.4 mph 10.4 mph 69 % 0 in
00:13 59.2 °F 48.9 °F 30.1 in WSW 10 mph 10 mph 69 % 0 in
00:18 59.5 °F 48.9 °F 30.1 in WSW 10 mph 10 mph 68 % 0 in
00:22 59.5 °F 48.9 °F 30.1 in WSW 5.8 mph 5.8 mph 68 % 0 in
00:24 59.5 °F 48.9 °F 30.1 in SW 8.1 mph 8.1 mph 68 % 0 in
00:27 59.7 °F 48.7 °F 30.1 in WSW 9.2 mph 9.2 mph 67 % 0 in
00:29 59.7 °F 48.7 °F 30.1 in WSW 9.2 mph 9.2 mph 67 % 0 in
00:32 59.9 °F 49.6 °F 30.1 in WSW 9.2 mph 9.2 mph 69 % 0 in
00:34 59.9 °F 49.6 °F 30.1 in West 6 mph 6 mph 69 % 0 in
00:38 59.7 °F 49.3 °F 30.1 in South 9 mph 9 mph 68 % 0 in
00:41 59.9 °F 48 °F 30.1 in SE 11.5 mph 11.5 mph 65 % 0 in
00:43 60.1 °F 48.2 °F 30.1 in South 8.1 mph 8.1 mph 65 % 0 in
00:48 60.3 °F 49.3 °F 30.1 in SW 5.8 mph 5.8 mph 67 % 0 in
00:49 60.3 °F 49.3 °F 30.1 in SW 5.8 mph 5.8 mph 67 % 0 in
00:51 60.3 °F 49.3 °F 30.1 in SW 4.6 mph 4.6 mph 67 % 0 in
00:55 60.1 °F 49.5 °F 30.1 in WSW 3.5 mph 3.5 mph 68 % 0 in
01:00 60.1 °F 48.9 °F 30.1 in WSW 9.2 mph 9.2 mph 67 % 0 in
01:05 60.1 °F 48.6 °F 30.1 in WNW 4.6 mph 4.6 mph 66 % 0 in
01:10 60.1 °F 48.2 °F 30.1 in West 12.7 mph 12.7 mph 65 % 0 in
01:14 60.1 °F 47.8 °F 30.1 in NW 10.4 mph 10.4 mph 64 % 0 in
01:16 60.1 °F 47.8 °F 30.1 in WSW 4.6 mph 4.6 mph 64 % 0 in
01:21 60.3 °F 48 °F 30.1 in West 7 mph 7 mph 64 % 0 in
01:22 60.3 °F 48 °F 30.1 in West 6.9 mph 6.9 mph 64 % 0 in
01:25 60.3 °F 48 °F 30.1 in West 8.1 mph 8.1 mph 64 % 0 in
01:29 60.3 °F 48.4 °F 30.1 in WNW 4 mph 4 mph 65 % 0 in
01:34 60.3 °F 48.4 °F 30.1 in NW 6.9 mph 6.9 mph 65 % 0 in
01:39 60.3 °F 48.4 °F 30.1 in West 9.2 mph 9.2 mph 65 % 0 in
01:40 60.3 °F 48.4 °F 30.1 in West 9.2 mph 9.2 mph 65 % 0 in
01:45 60.3 °F 48.7 °F 30.1 in West 5.8 mph 5.8 mph 66 % 0 in
01:50 60.3 °F 48.7 °F 30.1 in WNW 5 mph 8 mph 66 % 0 in
01:54 60.1 °F 48.9 °F 30.1 in WNW 11.5 mph 11.5 mph 67 % 0 in
01:56 60.1 °F 48.9 °F 30.1 in West 10.4 mph 10.4 mph 67 % 0 in
02:00 59.9 °F 49.3 °F 30.1 in WNW 6 mph 14 mph 68 % 0 in
02:02 59.9 °F 49.3 °F 30.1 in West 11.5 mph 11.5 mph 68 % 0 in
02:07 59.7 °F 49.3 °F 30.1 in WNW 13 mph 13 mph 68 % 0 in
02:12 59.7 °F 49.3 °F 30.1 in WNW 9.2 mph 9.2 mph 68 % 0 in
02:13 59.7 °F 49.3 °F 30.1 in West 10.4 mph 10.4 mph 68 % 0 in
02:18 59.7 °F 49.3 °F 30.1 in WNW 12.7 mph 12.7 mph 68 % 0 in
02:21 59.7 °F 49.6 °F 30.1 in WSW 9.2 mph 9.2 mph 69 % 0 in
02:23 59.7 °F 49.5 °F 30.1 in West 11.5 mph 11.5 mph 69 % 0 in
02:27 59.5 °F 49.8 °F 30.1 in West 17 mph 17 mph 70 % 0 in
02:30 59.5 °F 49.8 °F 30.1 in West 12 mph 12 mph 70 % 0 in
02:32 59.5 °F 50.2 °F 30.1 in West 13 mph 13 mph 71 % 0 in
02:37 59.4 °F 50.4 °F 30.1 in West 11.5 mph 11.5 mph 72 % 0 in
02:39 59.4 °F 50.4 °F 30.1 in WSW 17.3 mph 17.3 mph 72 % 0 in
02:44 59.2 °F 50.5 °F 30.1 in West 17.3 mph 17.3 mph 73 % 0 in
02:45 59.2 °F 50.7 °F 30.1 in WSW 12.7 mph 12.7 mph 74 % 0 in
02:50 59.2 °F 50.7 °F 30.1 in West 16.1 mph 16.1 mph 74 % 0 in
02:55 59.2 °F 50.7 °F 30 in West 16.1 mph 16.1 mph 74 % 0 in
02:57 59.2 °F 50.7 °F 30.1 in West 13.8 mph 13.8 mph 74 % 0 in
03:02 59.2 °F 50.9 °F 30 in WSW 17.3 mph 17.3 mph 74 % 0 in
03:03 59.2 °F 50.9 °F 30 in West 17.3 mph 17.3 mph 74 % 0 in
03:08 59.4 °F 51.4 °F 30.1 in WNW 13 mph 13 mph 75 % 0 in
03:11 59.4 °F 51.1 °F 30 in West 12.7 mph 12.7 mph 74 % 0 in
03:13 59.4 °F 51.1 °F 30 in West 16.1 mph 16.1 mph 74 % 0 in
03:17 59.4 °F 51.1 °F 30 in West 12.7 mph 12.7 mph 74 % 0 in
03:18 59.4 °F 51.1 °F 30 in West 17.3 mph 17.3 mph 74 % 0 in
03:23 59.5 °F 51.3 °F 30 in West 20.7 mph 20.7 mph 74 % 0 in
03:28 59.5 °F 51.3 °F 30 in West 20.7 mph 20.7 mph 74 % 0 in
03:29 59.5 °F 51.3 °F 30 in West 20.7 mph 20.7 mph 74 % 0 in
03:33 59.5 °F 51.3 °F 30 in WSW 19.6 mph 19.6 mph 74 % 0 in
03:34 59.5 °F 51.3 °F 30 in West 19.6 mph 19.6 mph 74 % 0 in
03:39 59.7 °F 51.4 °F 30 in West 20.7 mph 20.7 mph 74 % 0 in
03:40 59.7 °F 51.4 °F 30 in West 20.7 mph 20.7 mph 74 % 0 in
03:45 59.7 °F 51.4 °F 30 in West 19.6 mph 19.6 mph 74 % 0 in
03:50 59.7 °F 51.4 °F 30 in West 26.5 mph 26.5 mph 74 % 0 in
03:53 59.7 °F 51.4 °F 30 in WSW 26.5 mph 26.5 mph 74 % 0 in
03:57 59.9 °F 52 °F 30 in West 23 mph 23 mph 75 % 0 in
04:00 59.7 °F 52 °F 30 in WSW 24.2 mph 24.2 mph 75 % 0 in
04:03 59.7 °F 52 °F 30 in WSW 28.8 mph 28.8 mph 75 % 0 in
04:07 59.7 °F 52.2 °F 30 in West 26.5 mph 26.5 mph 76 % 0 in
04:08 59.7 °F 52.2 °F 30 in WSW 28 mph 28 mph 76 % 0 in
04:13 59.5 °F 52 °F 30 in West 24.2 mph 24.2 mph 76 % 0 in
04:18 59.5 °F 52.3 °F 30 in West 29 mph 29 mph 77 % 0 in
04:22 59.5 °F 52.5 °F 30 in West 24.2 mph 24.2 mph 78 % 0 in
04:24 59.4 °F 52.5 °F 30 in West 31.1 mph 31.1 mph 78 % 0 in
04:28 59.4 °F 52.3 °F 30 in West 26.5 mph 26.5 mph 78 % 0 in
04:31 59.2 °F 52.7 °F 30 in WSW 34.5 mph 34.5 mph 79 % 0 in
04:34 58.8 °F 52.7 °F 30 in West 33.4 mph 33.4 mph 80 % 0 in
04:39 58.6 °F 52.9 °F 30 in West 25.3 mph 25.3 mph 81 % 0 in
04:40 58.8 °F 53.1 °F 30 in WSW 25.3 mph 25.3 mph 81 % 0 in
04:41 58.6 °F 52.9 °F 30 in WSW 29.9 mph 29.9 mph 81 % 0 in
04:46 58.6 °F 53.1 °F 30 in West 32.2 mph 32.2 mph 82 % 0 in
04:47 58.6 °F 53.1 °F 30 in WSW 33 mph 33 mph 82 % 0 in
04:52 58.5 °F 53.2 °F 30 in WSW 34.5 mph 34.5 mph 83 % 0 in
04:53 58.5 °F 53.2 °F 30 in WSW 34.5 mph 34.5 mph 83 % 0 in
04:58 58.3 °F 53.4 °F 30 in WSW 31.1 mph 31.1 mph 84 % 0 in
05:04 57.9 °F 53.8 °F 30 in WSW 32.2 mph 32.2 mph 86 % 0 in
05:06 57.7 °F 53.4 °F 30 in WSW 26.5 mph 26.5 mph 86 % 0 in
05:09 57.6 °F 53.4 °F 30 in WSW 29.9 mph 29.9 mph 86 % 0 in
05:14 57.6 °F 53.8 °F 30 in WSW 26.5 mph 26.5 mph 87 % 0 in
05:16 57.6 °F 53.8 °F 30 in WSW 27.6 mph 27.6 mph 87 % 0 in
05:17 57.6 °F 53.8 °F 30 in WSW 29 mph 29 mph 87 % 0 in
05:22 57.6 °F 54 °F 30 in WSW 32.2 mph 32.2 mph 88 % 0 in
05:24 57.6 °F 54 °F 30 in West 26.5 mph 26.5 mph 88 % 0 in
05:25 57.6 °F 54 °F 30 in SW 26.5 mph 26.5 mph 88 % 0 in
05:30 57.6 °F 54.3 °F 30 in WSW 26.5 mph 26.5 mph 89 % 0 in
05:32 57.6 °F 54.3 °F 30 in WSW 27.6 mph 27.6 mph 89 % 0 in
05:35 57.6 °F 54.3 °F 30 in West 27.6 mph 27.6 mph 89 % 0 in
05:38 57.7 °F 54.5 °F 30 in WSW 28.8 mph 28.8 mph 89 % 0 in
05:40 57.7 °F 54.7 °F 30 in WSW 31.1 mph 31.1 mph 89 % 0 in
05:45 57.7 °F 54.5 °F 30 in WSW 31 mph 31 mph 89 % 0 in
05:46 57.7 °F 54.7 °F 30 in WSW 27.6 mph 27.6 mph 89 % 0 in
05:47 57.7 °F 54.7 °F 30 in WSW 31.1 mph 31.1 mph 89 % 0 in
05:51 57.7 °F 54.7 °F 30 in WSW 32.2 mph 32.2 mph 89 % 0 in
05:54 57.7 °F 54.7 °F 30 in WSW 29.9 mph 29.9 mph 89 % 0 in
05:57 57.9 °F 54.7 °F 30 in WSW 34.5 mph 34.5 mph 89 % 0 in
06:00 57.9 °F 55 °F 30 in WSW 32.2 mph 32.2 mph 90 % 0 in
06:02 57.9 °F 55 °F 30 in WSW 32.2 mph 32.2 mph 90 % 0 in
06:07 57.9 °F 55 °F 30 in WSW 26.5 mph 26.5 mph 90 % 0 in
06:09 57.9 °F 55 °F 30 in WSW 31.1 mph 31.1 mph 90 % 0 in
06:14 58.1 °F 55.2 °F 30 in WSW 26.5 mph 26.5 mph 90 % 0 in
06:15 58.1 °F 55.2 °F 30 in WSW 27.6 mph 27.6 mph 90 % 0 in
06:16 58.1 °F 55.2 °F 30 in WSW 27.6 mph 27.6 mph 90 % 0 in
06:21 58.3 °F 55.4 °F 30 in WSW 26.5 mph 26.5 mph 90 % 0 in
06:22 58.5 °F 55.6 °F 30 in WSW 27.6 mph 27.6 mph 90 % 0 in
06:25 58.5 °F 55.6 °F 30 in WSW 28.8 mph 28.8 mph 90 % 0 in
06:27 58.5 °F 55.2 °F 30 in WSW 26.5 mph 26.5 mph 89 % 0 in
06:32 58.6 °F 55.4 °F 30 in WSW 32.2 mph 32.2 mph 89 % 0 in
06:33 58.6 °F 55.4 °F 30 in WSW 28 mph 28 mph 89 % 0 in
06:38 58.6 °F 55.4 °F 30 in WSW 26.5 mph 26.5 mph 89 % 0 in
06:39 58.6 °F 55.4 °F 30 in West 26.5 mph 26.5 mph 89 % 0 in
06:43 58.6 °F 55.4 °F 30 in WSW 28 mph 28 mph 89 % 0 in
06:44 58.6 °F 55.4 °F 30 in WSW 27.6 mph 27.6 mph 89 % 0 in
06:48 58.6 °F 55.8 °F 30 in WSW 26.5 mph 26.5 mph 90 % 0 in
06:53 58.6 °F 55.8 °F 30 in WSW 26.5 mph 26.5 mph 90 % 0 in
06:54 58.6 °F 55.8 °F 30 in WSW 26.5 mph 26.5 mph 90 % 0 in
06:59 58.6 °F 55.8 °F 30 in WSW 31.1 mph 31.1 mph 90 % 0 in
07:00 58.6 °F 55.8 °F 30 in WSW 27.6 mph 27.6 mph 90 % 0 in
07:05 58.8 °F 55.9 °F 30 in WSW 29.9 mph 29.9 mph 90 % 0 in
07:07 58.8 °F 55.9 °F 30 in WSW 26.5 mph 26.5 mph 90 % 0 in
07:09 59 °F 56.1 °F 30 in WSW 25.3 mph 25.3 mph 90 % 0 in
07:13 59.2 °F 56.1 °F 29.9 in SW 24.2 mph 24.2 mph 90 % 0 in
07:18 59.2 °F 55.9 °F 30 in WSW 26.5 mph 26.5 mph 89 % 0 in
07:21 59.4 °F 56.1 °F 30 in WSW 29.9 mph 29.9 mph 89 % 0 in
07:25 59.2 °F 55.6 °F 29.9 in WSW 34.5 mph 34.5 mph 88 % 0 in
07:26 59.2 °F 55.6 °F 29.9 in SW 34.5 mph 34.5 mph 88 % 0 in
07:31 59.2 °F 55.9 °F 29.9 in SW 31.1 mph 31.1 mph 89 % 0 in
07:32 59.2 °F 55.9 °F 29.9 in WSW 31.1 mph 31.1 mph 89 % 0 in
07:37 59.2 °F 55.9 °F 29.9 in SW 28.8 mph 28.8 mph 89 % 0 in
07:41 59.2 °F 55.9 °F 29.9 in WSW 31 mph 31 mph 89 % 0 in
07:42 59.2 °F 55.9 °F 29.9 in WSW 34.5 mph 34.5 mph 89 % 0 in
07:48 59.2 °F 55.9 °F 29.9 in WSW 29.9 mph 29.9 mph 89 % 0 in
07:50 59.4 °F 56.1 °F 29.9 in WSW 32.2 mph 32.2 mph 89 % 0 in
07:53 59.4 °F 56.1 °F 29.9 in WSW 27.6 mph 27.6 mph 89 % 0 in
07:55 59.4 °F 56.1 °F 29.9 in WSW 24 mph 31 mph 89 % 0 in
07:59 59.4 °F 56.1 °F 29.9 in WSW 32.2 mph 32.2 mph 89 % 0 in
08:02 59.4 °F 55.8 °F 29.9 in WSW 28.8 mph 28.8 mph 88 % 0 in
08:05 59.5 °F 55.9 °F 30 in WSW 35.7 mph 35.7 mph 88 % 0 in
08:08 59.5 °F 55.9 °F 29.9 in SW 31.1 mph 31.1 mph 88 % 0 in
08:10 59.5 °F 55.9 °F 30 in WSW 33.4 mph 33.4 mph 88 % 0 in
08:15 59.5 °F 55.9 °F 30 in WSW 29.9 mph 29.9 mph 88 % 0 in
08:16 59.5 °F 55.9 °F 29.9 in WSW 29.9 mph 29.9 mph 88 % 0 in
08:21 59.5 °F 56.3 °F 29.9 in WSW 27.6 mph 27.6 mph 89 % 0 in
08:22 59.5 °F 56.3 °F 29.9 in WSW 29.9 mph 29.9 mph 89 % 0 in
08:26 59.5 °F 56.3 °F 30 in WSW 32.2 mph 32.2 mph 89 % 0 in
08:30 59.5 °F 55.9 °F 29.9 in WSW 24 mph 33 mph 88 % 0 in
08:35 59.7 °F 56.1 °F 30 in WSW 27 mph 27 mph 88 % 0 in
08:40 60.1 °F 56.1 °F 30 in WSW 29.9 mph 29.9 mph 87 % 0 in
08:41 60.1 °F 56.1 °F 30 in WSW 29.9 mph 29.9 mph 87 % 0 in
08:43 60.1 °F 56.1 °F 30 in WSW 27.6 mph 27.6 mph 87 % 0 in
08:46 60.1 °F 56.1 °F 30 in WSW 28.8 mph 28.8 mph 87 % 0 in
08:51 60.1 °F 56.1 °F 30 in WSW 29.9 mph 29.9 mph 87 % 0 in
08:52 59.9 °F 55.9 °F 30 in WSW 24.2 mph 24.2 mph 87 % 0 in
08:57 59.9 °F 56.3 °F 30 in WSW 31.1 mph 31.1 mph 88 % 0 in
08:58 59.9 °F 56.3 °F 30 in WSW 31.1 mph 31.1 mph 88 % 0 in
08:59 59.9 °F 56.3 °F 30 in WSW 34.5 mph 34.5 mph 88 % 0 in
09:04 59.7 °F 56.1 °F 30 in WSW 26.5 mph 26.5 mph 88 % 0 in
09:06 59.7 °F 56.1 °F 30 in SW 26.5 mph 26.5 mph 88 % 0 in
09:08 59.7 °F 56.1 °F 30 in WSW 31 mph 31 mph 88 % 0 in
09:13 59.7 °F 56.5 °F 30 in WSW 28.8 mph 28.8 mph 89 % 0 in
09:16 59.7 °F 56.5 °F 30 in SW 26.5 mph 26.5 mph 89 % 0 in
09:18 59.5 °F 56.5 °F 30 in WSW 28.8 mph 28.8 mph 89 % 0 in
09:23 59.5 °F 56.5 °F 30 in SW 27 mph 27 mph 89 % 0 in
09:24 59.5 °F 56.5 °F 30 in WSW 27 mph 27 mph 89 % 0 in
09:29 59.5 °F 56.3 °F 30 in WSW 29.9 mph 29.9 mph 89 % 0 in
09:32 59.5 °F 56.7 °F 30 in WSW 33 mph 33 mph 90 % 0 in
09:37 59.5 °F 56.7 °F 30 in SW 26.5 mph 26.5 mph 90 % 0 in
09:38 59.5 °F 56.7 °F 30 in West 27.6 mph 27.6 mph 90 % 0 in
09:42 59.5 °F 56.7 °F 30 in WSW 28.8 mph 28.8 mph 90 % 0 in
09:43 59.5 °F 56.7 °F 30 in WSW 29 mph 29 mph 90 % 0 in
09:48 59.5 °F 56.7 °F 30 in West 27.6 mph 27.6 mph 90 % 0 in
09:53 59.5 °F 56.7 °F 30 in WSW 29 mph 29 mph 90 % 0 in
09:55 59.5 °F 56.7 °F 30 in SW 28.8 mph 28.8 mph 90 % 0 in
10:00 59.5 °F 56.8 °F 30 in WSW 26.5 mph 26.5 mph 91 % 0 in
10:01 59.5 °F 56.8 °F 30 in WSW 26.5 mph 26.5 mph 91 % 0 in
10:06 59.5 °F 56.8 °F 30 in WSW 26.5 mph 26.5 mph 91 % 0 in
10:07 59.5 °F 56.8 °F 30 in WSW 26.5 mph 26.5 mph 91 % 0 in
10:12 59.5 °F 57 °F 30 in WSW 28.8 mph 28.8 mph 91 % 0 in
10:17 59.7 °F 57.2 °F 30 in WSW 23 mph 23 mph 91 % 0 in
10:18 59.7 °F 57.2 °F 30 in WSW 23 mph 23 mph 91 % 0 in
10:21 60.1 °F 57.4 °F 30 in SW 20.7 mph 20.7 mph 91 % 0 in
10:24 60.3 °F 57.4 °F 30 in WSW 17.3 mph 17.3 mph 90 % 0 in
10:27 60.3 °F 57.4 °F 30 in SW 17 mph 17 mph 90 % 0 in
10:31 60.4 °F 57.2 °F 30 in WSW 17.3 mph 17.3 mph 89 % 0 in
10:36 60.8 °F 57.2 °F 30 in West 10 mph 10 mph 88 % 0 in
10:37 61 °F 57.4 °F 30 in West 10.4 mph 10.4 mph 88 % 0 in
10:42 61.3 °F 57 °F 30 in West 8.1 mph 8.1 mph 86 % 0 in
10:44 61.5 °F 57 °F 30 in West 8.1 mph 8.1 mph 85 % 0 in
10:49 62.1 °F 56.1 °F 30 in West 10.4 mph 10.4 mph 81 % 0 in
10:50 62.1 °F 56.1 °F 30 in WSW 6.9 mph 6.9 mph 81 % 0 in
10:51 62.2 °F 55.9 °F 30 in SW 8 mph 8 mph 80 % 0 in
10:56 62.8 °F 55.4 °F 30 in WNW 3.5 mph 3.5 mph 77 % 0 in
10:57 62.8 °F 55.4 °F 30 in WNW 3.5 mph 3.5 mph 77 % 0 in
11:02 63 °F 54.7 °F 30 in NW 4 mph 4 mph 74 % 0 in
11:06 63.1 °F 54.3 °F 30 in WNW 8.1 mph 8.1 mph 73 % 0 in
11:11 63.3 °F 53.2 °F 30 in West 6.9 mph 6.9 mph 70 % 0 in
11:12 63.3 °F 53.2 °F 30 in West 6.9 mph 6.9 mph 70 % 0 in
11:17 63.5 °F 53.1 °F 30 in NW 8.1 mph 8.1 mph 69 % 0 in
11:22 63.7 °F 52.9 °F 30 in WNW 9.2 mph 9.2 mph 68 % 0 in
11:27 63.7 °F 52.9 °F 30 in SW 2.3 mph   68 % 0 in
11:32 63.7 °F 52.5 °F 30 in WSW 4.6 mph 4.6 mph 67 % 0 in
11:33 63.7 °F 52.5 °F 30 in WSW 3.5 mph 3.5 mph 67 % 0 in
11:38 63.9 °F 51.8 °F 30 in West 11.5 mph 11.5 mph 65 % 0 in
11:43 64.2 °F 51.8 °F 30 in NW 11.5 mph 11.5 mph 64 % 0 in
11:44 64.2 °F 51.8 °F 30 in WNW 13 mph 13 mph 64 % 0 in
11:49 64.6 °F 51.6 °F 30 in West 10 mph 10 mph 63 % 0 in
11:50 64.6 °F 51.3 °F 30 in WNW 13.8 mph 13.8 mph 62 % 0 in
11:54 64.9 °F 51.1 °F 30 in NW 16.1 mph 16.1 mph 61 % 0 in
11:59 65.1 °F 50.9 °F 30 in WNW 17.3 mph 17.3 mph 60 % 0 in
12:00 65.1 °F 50.9 °F 30 in West 17.3 mph 17.3 mph 60 % 0 in
12:05 65.3 °F 51.1 °F 30 in West 8.1 mph 8.1 mph 60 % 0 in
12:10 65.5 °F 50.7 °F 30 in WNW 15 mph 15 mph 59 % 0 in
12:11 65.5 °F 50.7 °F 30 in NNW 15 mph 15 mph 59 % 0 in
12:12 65.5 °F 50.7 °F 30 in NW 10.4 mph 10.4 mph 59 % 0 in
12:16 65.7 °F 50.9 °F 30 in WNW 10.4 mph 10.4 mph 59 % 0 in
12:21 65.7 °F 50.9 °F 30 in NW 8.1 mph 8.1 mph 59 % 0 in
12:22 65.7 °F 50.9 °F 30 in NW 8.1 mph 8.1 mph 59 % 0 in
12:27 65.8 °F 51.1 °F 30 in WNW 8.1 mph 8.1 mph 59 % 0 in
12:29 65.8 °F 50.7 °F 30 in NNW 5.8 mph 5.8 mph 58 % 0 in
12:31 66 °F 50.7 °F 30 in NNW 7 mph 7 mph 58 % 0 in
12:36 66 °F 50.9 °F 30 in WSW 13 mph 13 mph 58 % 0 in
12:41 66 °F 50.9 °F 30 in NNE 6 mph 6 mph 58 % 0 in
12:46 66 °F 50.7 °F 30 in West 5.8 mph 5.8 mph 58 % 0 in
12:48 65.8 °F 50.7 °F 30 in West 5.8 mph 5.8 mph 58 % 0 in
12:53 65.8 °F 52.3 °F 30 in WSW 10.4 mph 10.4 mph 62 % 0 in
12:58 65.3 °F 52.3 °F 30 in West 8.1 mph 8.1 mph 63 % 0 in
12:59 65.1 °F 52.2 °F 30 in West 6.9 mph 6.9 mph 63 % 0 in
13:04 64.9 °F 52.2 °F 30 in West 5.8 mph 5.8 mph 63 % 0 in
13:05 64.9 °F 52.2 °F 30 in West 5.8 mph 5.8 mph 63 % 0 in
13:06 64.9 °F 52.2 °F 30 in WNW 4.6 mph 5.1 mph 63 % 0 in
13:10 64.9 °F 50.4 °F 30 in SW 10.4 mph 10.4 mph 59 % 0 in
13:12 65.1 °F 50.9 °F 30 in NW 8.1 mph 8.1 mph 60 % 0 in
13:17 65.5 °F 49.3 °F 30 in West 15 mph 15 mph 56 % 0 in
13:18 65.5 °F 49.5 °F 30 in West 17.3 mph 17.3 mph 56 % 0 in
13:21 65.7 °F 50 °F 30 in West 12.7 mph 12.7 mph 57 % 0 in
13:24 65.5 °F 51.3 °F 30 in WSW 21 mph 21 mph 60 % 0 in
13:29 64.6 °F 51.6 °F 30 in West 13.8 mph 13.8 mph 63 % 0 in
13:34 64.2 °F 51.8 °F 30 in West 18.4 mph 18.4 mph 64 % 0 in
13:37 64.2 °F 50.5 °F 30 in West 14 mph 14 mph 61 % 0 in
13:41 64.6 °F 50.7 °F 30 in WNW 10.4 mph 10.4 mph 61 % 0 in
13:46 64.8 °F 50.9 °F 30 in West 23 mph 23 mph 61 % 0 in
13:47 64.8 °F 50.9 °F 30 in West 23 mph 23 mph 61 % 0 in
13:48 64.8 °F 50.9 °F 30 in WSW 23 mph 23 mph 61 % 0 in
13:52 64.8 °F 50.2 °F 30 in West 14 mph 14 mph 59 % 0 in
13:54 64.9 °F 50.7 °F 30 in WSW 15 mph 15 mph 60 % 0 in
13:58 64.9 °F 50.7 °F 30 in WNW 15 mph 15 mph 60 % 0 in
14:00 64.9 °F 50.2 °F 30 in West 16.1 mph 16.1 mph 59 % 0 in
14:04 64.8 °F 50.2 °F 30 in West 19.6 mph 19.6 mph 59 % 0 in
14:05 64.8 °F 50 °F 30 in West 15 mph 15 mph 59 % 0 in
14:09 64.6 °F 49.8 °F 30 in West 13.8 mph 13.8 mph 59 % 0 in
14:11 64.6 °F 49.5 °F 30 in WSW 21.9 mph 21.9 mph 58 % 0 in
14:16 64.6 °F 49.8 °F 30 in West 20 mph 20 mph 59 % 0 in
14:17 64.6 °F 49.8 °F 30 in WSW 19.6 mph 19.6 mph 59 % 0 in
14:20 64.6 °F 49.8 °F 30 in West 15 mph 15 mph 59 % 0 in
14:22 64.4 °F 49.8 °F 30 in West 11.5 mph 11.5 mph 59 % 0 in
14:27 64.6 °F 49.8 °F 30 in West 19.6 mph 19.6 mph 59 % 0 in
14:29 64.6 °F 49.5 °F 30 in WNW 19.6 mph 19.6 mph 58 % 0 in
14:32 64.6 °F 49.8 °F 30 in WSW 18.4 mph 18.4 mph 59 % 0 in
14:35 64.4 °F 49.8 °F 30 in West 19.6 mph 19.6 mph 59 % 0 in
14:37 64.4 °F 50.2 °F 30 in WSW 19.6 mph 19.6 mph 60 % 0 in
14:40 64.2 °F 49.6 °F 30 in WNW 19.6 mph 19.6 mph 59 % 0 in
14:45 64.2 °F 50 °F 30 in WSW 17.3 mph 17.3 mph 60 % 0 in
14:49 64.2 °F 50 °F 30 in West 10.4 mph 10.4 mph 60 % 0 in
14:51 64 °F 50.4 °F 30 in WNW 15 mph 15 mph 61 % 0 in
14:54 64 °F 50.4 °F 30 in West 16.1 mph 16.1 mph 61 % 0 in
14:58 63.9 °F 50.2 °F 30 in WSW 18.4 mph 18.4 mph 61 % 0 in
15:01 63.9 °F 50.2 °F 30 in West 17.3 mph 17.3 mph 61 % 0 in
15:06 63.7 °F 50.4 °F 30 in WNW 18.4 mph 18.4 mph 62 % 0 in
15:07 63.7 °F 50 °F 30 in WNW 18.4 mph 18.4 mph 61 % 0 in
15:12 63.7 °F 50 °F 30 in West 16.1 mph 16.1 mph 61 % 0 in
15:17 63.7 °F 50.4 °F 30 in WNW 9.2 mph 9.2 mph 62 % 0 in
15:18 63.7 °F 50.4 °F 30 in NW 9.2 mph 9.2 mph 62 % 0 in
15:23 63.5 °F 50.2 °F 30 in West 11 mph 11 mph 62 % 0 in
15:26 63.5 °F 50.2 °F 30 in West 15 mph 15 mph 62 % 0 in
15:29 63.7 °F 50.4 °F 30 in West 12.7 mph 12.7 mph 62 % 0 in
15:31 63.5 °F 50.7 °F 30 in West 10.4 mph 10.4 mph 63 % 0 in
15:36 63.5 °F 50.7 °F 30 in West 15 mph 15 mph 63 % 0 in
15:41 63.5 °F 50.7 °F 30 in West 10.4 mph 10.4 mph 63 % 0 in
15:44 63.5 °F 50.7 °F 30 in WSW 12.7 mph 12.7 mph 63 % 0 in
15:45 63.5 °F 50.7 °F 30 in West 17.3 mph 17.3 mph 63 % 0 in
15:50 63.3 °F 51.1 °F 30 in West 15 mph 15 mph 64 % 0 in
15:53 63.3 °F 51.3 °F 30 in WSW 18.4 mph 18.4 mph 65 % 0 in
15:56 63.1 °F 51.6 °F 30 in WSW 19.6 mph 19.6 mph 66 % 0 in
16:01 62.8 °F 51.6 °F 30 in SW 26.5 mph 26.5 mph 67 % 0 in
16:02 62.6 °F 51.4 °F 30 in West 24.2 mph 24.2 mph 67 % 0 in
16:07 62.4 °F 51.6 °F 30 in West 19.6 mph 19.6 mph 68 % 0 in
16:12 62.4 °F 51.8 °F 30 in WSW 21.9 mph 21.9 mph 68 % 0 in
16:13 62.4 °F 51.8 °F 30 in West 21.9 mph 21.9 mph 68 % 0 in
16:15 62.4 °F 51.6 °F 30 in West 24.2 mph 24.2 mph 68 % 0 in
16:19 62.2 °F 52 °F 30 in WSW 21.9 mph 21.9 mph 69 % 0 in
16:21 62.1 °F 51.8 °F 30 in West 18.4 mph 18.4 mph 69 % 0 in
16:24 62.1 °F 52.2 °F 30 in West 25.3 mph 25.3 mph 70 % 0 in
16:29 61.9 °F 52.3 °F 30 in West 21.9 mph 21.9 mph 71 % 0 in
16:32 61.5 °F 52.2 °F 30 in West 28.8 mph 28.8 mph 71 % 0 in
16:35 61.5 °F 52.3 °F 30 in WNW 26.5 mph 26.5 mph 72 % 0 in
16:38 61.5 °F 52.2 °F 30 in West 25.3 mph 25.3 mph 71 % 0 in
16:42 61.7 °F 51.8 °F 30 in West 19.6 mph 19.6 mph 70 % 0 in
16:46 61.7 °F 51.8 °F 30 in West 15 mph 15 mph 70 % 0 in
16:49 61.9 °F 51.6 °F 30 in WNW 18.4 mph 18.4 mph 69 % 0 in
16:51 62.1 °F 51.4 °F 30 in West 19.6 mph 19.6 mph 68 % 0 in
16:54 62.4 °F 50.9 °F 30 in WSW 18.4 mph 18.4 mph 66 % 0 in
16:59 62.2 °F 51.4 °F 30 in West 23 mph 23 mph 68 % 0 in
17:01 62.2 °F 51.4 °F 30 in West 23 mph 23 mph 68 % 0 in
17:03 62.1 °F 51.4 °F 30 in WNW 21.9 mph 21.9 mph 68 % 0 in
17:06 62.1 °F 51.1 °F 30 in West 17.3 mph 17.3 mph 67 % 0 in
17:08 62.2 °F 51.1 °F 30 in NNW 16 mph 16 mph 67 % 0 in
17:11 62.2 °F 50.7 °F 30 in WNW 15 mph 15 mph 66 % 0 in
17:14 62.4 °F 50.9 °F 30 in WNW 15 mph 15 mph 66 % 0 in
17:17 62.4 °F 50.5 °F 30 in WSW 17.3 mph 17.3 mph 65 % 0 in
17:20 62.4 °F 50.2 °F 30 in WSW 18.4 mph 18.4 mph 64 % 0 in
17:23 62.8 °F 50.4 °F 30 in West 17.3 mph 17.3 mph 64 % 0 in
17:26 62.8 °F 50 °F 30 in WNW 13.8 mph 13.8 mph 63 % 0 in
17:31 63 °F 50.2 °F 30 in West 15 mph 15 mph 63 % 0 in
17:36 63 °F 50.2 °F 30 in West 13 mph 13 mph 63 % 0 in
17:38 63 °F 50.2 °F 30 in West 19.6 mph 19.6 mph 63 % 0 in
17:42 63 °F 50.2 °F 30 in WNW 18.4 mph 18.4 mph 63 % 0 in
17:47 63 °F 50.2 °F 30 in WNW 10.4 mph 10.4 mph 63 % 0 in
17:52 63 °F 50.2 °F 30 in West 11.5 mph 11.5 mph 63 % 0 in
17:55 63 °F 50.2 °F 30 in West 16.1 mph 16.1 mph 63 % 0 in
17:58 63 °F 50.5 °F 30 in West 16.1 mph 16.1 mph 64 % 0 in
18:00 63 °F 50.2 °F 30 in West 17.3 mph 17.3 mph 63 % 0 in
18:01 63 °F 50.2 °F 30 in WSW 17.3 mph 17.3 mph 63 % 0 in
18:06 63 °F 50.5 °F 30 in West 18.4 mph 18.4 mph 64 % 0 in
18:11 63 °F 50.2 °F 30 in West 14 mph 14 mph 63 % 0 in
18:16 63 °F 50.2 °F 30 in WNW 15 mph 15 mph 63 % 0 in
18:17 63 °F 50.2 °F 30 in WNW 17.3 mph 17.3 mph 63 % 0 in
18:22 63 °F 50.2 °F 30 in NW 10.4 mph 10.4 mph 63 % 0 in
18:23 63 °F 50.2 °F 30 in WNW 10.4 mph 10.4 mph 63 % 0 in
18:28 63 °F 49.6 °F 30 in WNW 11.5 mph 11.5 mph 62 % 0 in
18:30 63 °F 49.3 °F 30 in West 11.5 mph 11.5 mph 61 % 0 in
18:32 63 °F 49.8 °F 30 in NNW 27 mph 27 mph 62 % 0 in
18:36 63.3 °F 49.3 °F 30 in NW 15 mph 15 mph 60 % 0 in
18:41 63.5 °F 49.8 °F 30 in West 17.3 mph 17.3 mph 61 % 0 in
18:42 63.3 °F 49.6 °F 30 in West 20 mph 20 mph 61 % 0 in
18:47 63.7 °F 48.6 °F 30 in West 17.3 mph 17.3 mph 58 % 0 in
18:49 63.7 °F 48.9 °F 30 in WNW 17.3 mph 17.3 mph 59 % 0 in
18:52 63.7 °F 48.9 °F 30 in West 11.5 mph 11.5 mph 59 % 0 in
18:58 63.9 °F 48.4 °F 30 in West 26.5 mph 26.5 mph 57 % 0 in
19:00 63.9 °F 48.7 °F 30 in WNW 12 mph 27 mph 58 % 0 in
19:03 63.9 °F 49.3 °F 30 in West 16.1 mph 16.1 mph 59 % 0 in
19:08 63.7 °F 49.5 °F 30 in WNW 11.5 mph 11.5 mph 60 % 0 in
19:13 63.3 °F 49.3 °F 30 in West 20.7 mph 20.7 mph 60 % 0 in
19:14 63.1 °F 49.1 °F 30 in WNW 15 mph 15 mph 60 % 0 in
19:18 63.1 °F 49.5 °F 30 in West 14 mph 14 mph 61 % 0 in
19:20 63 °F 49.8 °F 30 in West 15 mph 15 mph 62 % 0 in
19:23 63 °F 49.3 °F 30 in NW 19.6 mph 19.6 mph 61 % 0 in
19:26 63 °F 49.8 °F 30 in West 13.8 mph 13.8 mph 62 % 0 in
19:28 63 °F 49.8 °F 30 in West 19.6 mph 19.6 mph 62 % 0 in
19:31 63.1 °F 48.9 °F 30 in West 17.3 mph 17.3 mph 60 % 0 in
19:34 63.1 °F 49.1 °F 30 in NW 14 mph 14 mph 60 % 0 in
19:39 63.3 °F 49.3 °F 30 in WNW 11.5 mph 11.5 mph 60 % 0 in
19:43 63.1 °F 49.5 °F 30 in WNW 15 mph 15 mph 61 % 0 in
19:48 63.1 °F 49.5 °F 30 in West 14 mph 14 mph 61 % 0 in
19:50 63.1 °F 50 °F 30 in NW 12.7 mph 12.7 mph 62 % 0 in
19:52 63.1 °F 49.5 °F 30 in West 15 mph 15 mph 61 % 0 in
19:55 63.1 °F 49.5 °F 30 in WNW 15 mph 15 mph 61 % 0 in
19:57 63.1 °F 49.5 °F 30 in WNW 15 mph 15 mph 61 % 0 in
20:01 63.1 °F 49.8 °F 30 in West 11.5 mph 11.5 mph 62 % 0 in
20:06 63 °F 49.8 °F 30 in West 19.6 mph 19.6 mph 62 % 0 in
20:11 63.3 °F 49.6 °F 30 in WNW 11.5 mph 11.5 mph 61 % 0 in
20:12 63.3 °F 49.6 °F 30 in West 11.5 mph 11.5 mph 61 % 0 in
20:17 63.1 °F 49.8 °F 30 in West 11.5 mph 11.5 mph 62 % 0 in
20:22 63 °F 49.6 °F 30 in WNW 18.4 mph 18.4 mph 62 % 0 in
20:26 63 °F 49.6 °F 30 in NW 16.1 mph 16.1 mph 62 % 0 in
20:28 63 °F 49.6 °F 30 in WNW 18 mph 18 mph 62 % 0 in
20:33 63 °F 50.2 °F 30 in NW 12.7 mph 12.7 mph 63 % 0 in
20:34 63 °F 50.2 °F 30 in WNW 13 mph 13 mph 63 % 0 in
20:35 63 °F 50.2 °F 30 in WNW 9 mph 13 mph 63 % 0 in
20:40 62.8 °F 49.8 °F 30 in WNW 12.7 mph 12.7 mph 63 % 0 in
20:42 62.8 °F 50 °F 30 in NW 15 mph 15 mph 63 % 0 in
20:45 62.8 °F 49.6 °F 30 in NW 13 mph 21 mph 62 % 0 in
20:49 62.8 °F 50 °F 30 in West 12 mph 12 mph 63 % 0 in
20:50 62.8 °F 49.6 °F 30 in NW 18.4 mph 18.4 mph 62 % 0 in
20:55 63.1 °F 48.9 °F 30 in NW 16.1 mph 16.1 mph 60 % 0 in
20:56 63.1 °F 48.9 °F 30 in WNW 16.1 mph 16.1 mph 60 % 0 in
20:59 63.3 °F 49.3 °F 30 in NW 15 mph 15 mph 60 % 0 in
21:01 63.3 °F 49.3 °F 30 in WNW 17.3 mph 17.3 mph 60 % 0 in
21:06 63.5 °F 48.9 °F 30 in NW 17.3 mph 17.3 mph 59 % 0 in
21:11 63.7 °F 48.9 °F 30 in WNW 19.6 mph 19.6 mph 59 % 0 in
21:12 63.7 °F 48.9 °F 30 in WNW 20.7 mph 20.7 mph 59 % 0 in
21:17 63.5 °F 48.9 °F 30 in NW 19.6 mph 19.6 mph 59 % 0 in
21:21 63.5 °F 48.6 °F 30 in NW 24.2 mph 24.2 mph 58 % 0 in
21:23 63.7 °F 48.6 °F 30 in NW 24 mph 24 mph 58 % 0 in
21:26 63.7 °F 48.6 °F 30 in NW 25.3 mph 25.3 mph 58 % 0 in
21:31 63.5 °F 48.6 °F 30 in NNW 24.2 mph 24.2 mph 58 % 0 in
21:32 63.5 °F 48.6 °F 30 in NNW 24.2 mph 24.2 mph 58 % 0 in
21:37 63.3 °F 48.4 °F 30 in NW 19.6 mph 19.6 mph 58 % 0 in
21:42 63.3 °F 48.4 °F 30 in NNW 23 mph 23 mph 58 % 0 in
21:43 63.1 °F 48.2 °F 30 in NW 23 mph 23 mph 58 % 0 in
21:48 63.1 °F 48 °F 30 in NW 21.9 mph 21.9 mph 58 % 0 in
21:49 63.1 °F 48 °F 30 in NW 19.6 mph 19.6 mph 58 % 0 in
21:54 63 °F 48 °F 30.1 in NW 24.2 mph 24.2 mph 58 % 0 in
21:59 63 °F 47.8 °F 30 in NW 24.2 mph 24.2 mph 58 % 0 in
22:01 63 °F 47.8 °F 30.1 in NW 25 mph 25 mph 58 % 0 in
22:05 63 °F 47.5 °F 30.1 in WNW 23 mph 23 mph 57 % 0 in
22:07 63 °F 47.5 °F 30 in NNW 29.9 mph 29.9 mph 57 % 0 in
22:11 63 °F 47.5 °F 30 in North 23 mph 23 mph 57 % 0 in
22:12 62.8 °F 47.3 °F 30 in WNW 23 mph 23 mph 57 % 0 in
22:17 62.8 °F 47.7 °F 30 in NW 19.6 mph 19.6 mph 58 % 0 in
22:18 62.8 °F 47.7 °F 30 in NW 19.6 mph 19.6 mph 58 % 0 in
22:19 62.8 °F 47.7 °F 30 in WNW 19.6 mph 19.6 mph 58 % 0 in
22:23 62.6 °F 47.7 °F 30.1 in NW 23 mph 23 mph 58 % 0 in
22:25 62.6 °F 47.7 °F 30 in WNW 24.2 mph 24.2 mph 58 % 0 in
22:29 62.6 °F 47.7 °F 30.1 in NW 21 mph 21 mph 58 % 0 in
22:34 62.6 °F 47.7 °F 30.1 in WNW 25.3 mph 25.3 mph 58 % 0 in
22:40 62.4 °F 47.5 °F 30.1 in NW 16 mph 24 mph 58 % 0 in
22:41 62.4 °F 47.5 °F 30.1 in NW 19.6 mph 19.6 mph 58 % 0 in
22:42 62.4 °F 47.5 °F 30.1 in NW 21 mph 21 mph 58 % 0 in
22:47 62.6 °F 47.7 °F 30.1 in NNW 23 mph 23 mph 58 % 0 in
22:48 62.4 °F 47.5 °F 30.1 in NNW 21.9 mph 21.9 mph 58 % 0 in
22:53 62.4 °F 47.5 °F 30.1 in NW 19.6 mph 19.6 mph 58 % 0 in
22:57 62.4 °F 47.5 °F 30.1 in WNW 16.1 mph 16.1 mph 58 % 0 in
22:59 62.4 °F 47.5 °F 30.1 in NW 19.6 mph 19.6 mph 58 % 0 in
23:04 62.2 °F 47.3 °F 30.1 in NNW 19.6 mph 19.6 mph 58 % 0 in
23:07 62.2 °F 47.3 °F 30.1 in NW 12.7 mph 12.7 mph 58 % 0 in
23:09 62.2 °F 47.3 °F 30.1 in WNW 13.8 mph 13.8 mph 58 % 0 in
23:13 62.2 °F 47.1 °F 30.1 in NW 16 mph 16 mph 58 % 0 in
23:19 62.4 °F 47.5 °F 30.1 in WNW 16 mph 16 mph 58 % 0 in
23:24 62.4 °F 47.5 °F 30.1 in NW 13.8 mph 13.8 mph 58 % 0 in
23:25 62.4 °F 47.5 °F 30.1 in NW 13.8 mph 13.8 mph 58 % 0 in
23:30 62.2 °F 47.8 °F 30.1 in WNW 10.4 mph 10.4 mph 59 % 0 in
23:35 62.2 °F 47.7 °F 30.1 in NW 5.8 mph 5.8 mph 59 % 0 in
23:37 62.1 °F 47.7 °F 30.1 in NW 6 mph 6 mph 59 % 0 in
23:42 61.9 °F 47.5 °F 30.1 in West 9.2 mph 9.2 mph 59 % 0 in
23:43 61.9 °F 47.8 °F 30.1 in West 7 mph 7 mph 60 % 0 in
23:48 61.7 °F 47.7 °F 30.1 in West 6.9 mph 6.9 mph 60 % 0 in
23:49 61.5 °F 48 °F 30.1 in WSW 9.2 mph 9.2 mph 61 % 0 in
23:54 61.2 °F 48.4 °F 30.1 in West 12.7 mph 12.7 mph 63 % 0 in
23:55 61 °F 48.4 °F 30.1 in WNW 12.7 mph 12.7 mph 63 % 0 in
23:59 60.6 °F 48.4 °F 30.1 in West 12.7 mph 12.7 mph 64 % 0 in
Puerto Banus, Marbella
Elogios de Weather Underground - 2.25 mb

Guión original por  Jim McMurry - jmcmurry@mwt.net Adaptado para la plantilla por  Wim van der Kuil - Leuven-Template.eu

Usted encontrará nuestra información del tiempo también en:

Weather Underground

Iberian Peninsula Weather Network